createdAt,value
2024-04-16T00:03:12.053Z,6.80
2024-04-16T00:06:38.445Z,6.80
2024-04-16T00:09:59.732Z,6.80
2024-04-16T00:13:23.618Z,6.80
2024-04-16T00:16:45.870Z,6.80
2024-04-16T00:20:10.087Z,6.80
2024-04-16T00:23:36.803Z,6.80
2024-04-16T00:26:57.787Z,6.90
2024-04-16T00:30:21.392Z,6.90
2024-04-16T00:33:45.279Z,6.80
2024-04-16T00:37:09.069Z,6.80
2024-04-16T00:40:33.175Z,6.80
2024-04-16T00:43:57.079Z,6.80
2024-04-16T00:47:21.318Z,6.80
2024-04-16T00:50:45.332Z,6.80
2024-04-16T00:54:09.731Z,6.70
2024-04-16T00:57:36.670Z,6.80
2024-04-16T01:01:00.494Z,6.80
2024-04-16T01:04:24.508Z,6.80
2024-04-16T01:07:45.734Z,6.90
2024-04-16T01:11:09.499Z,6.90
2024-04-16T01:14:35.983Z,6.90
2024-04-16T01:17:58.695Z,7.00
2024-04-16T01:21:22.444Z,6.90
2024-04-16T01:24:48.637Z,6.80
2024-04-16T01:28:12.081Z,6.90
2024-04-16T01:31:33.807Z,6.80
2024-04-16T01:34:57.608Z,6.90
2024-04-16T01:38:18.870Z,6.90
2024-04-16T01:41:45.954Z,6.90
2024-04-16T01:45:06.993Z,6.80
2024-04-16T01:48:30.751Z,6.90
2024-04-16T01:51:51.999Z,6.90
2024-04-16T01:55:15.834Z,6.90
2024-04-16T01:58:42.050Z,7.00
2024-04-16T02:02:03.281Z,7.00
2024-04-16T02:05:27.253Z,7.00
2024-04-16T02:08:52.376Z,7.00
2024-04-16T02:12:14.016Z,7.00
2024-04-16T02:15:40.559Z,7.00
2024-04-16T02:19:04.720Z,6.90
2024-04-16T02:22:25.960Z,6.90
2024-04-16T02:25:50.942Z,6.90
2024-04-16T02:29:14.930Z,6.80
2024-04-16T02:32:38.516Z,6.90
2024-04-16T02:36:04.111Z,6.90
2024-04-16T02:39:25.583Z,6.90
2024-04-16T02:42:49.559Z,6.90
2024-04-16T02:46:13.606Z,6.90
2024-04-16T02:49:37.703Z,7.00
2024-04-16T02:53:01.689Z,7.00
2024-04-16T02:56:23.042Z,7.00
2024-04-16T02:59:51.056Z,7.00
2024-04-16T03:03:13.218Z,7.00
2024-04-16T03:06:39.856Z,7.00
2024-04-16T03:10:03.957Z,7.10
2024-04-16T03:13:27.683Z,7.10
2024-04-16T03:16:51.796Z,7.00
2024-04-16T03:20:15.888Z,7.00
2024-04-16T03:23:42.502Z,7.00
2024-04-16T03:27:03.323Z,7.00
2024-04-16T03:30:28.021Z,7.00
2024-04-16T03:33:51.421Z,6.90
2024-04-16T03:37:15.676Z,6.90
2024-04-16T03:40:42.360Z,6.90
2024-04-16T03:44:06.077Z,6.80
2024-04-16T03:47:27.045Z,6.80
2024-04-16T03:50:50.830Z,6.90
2024-04-16T03:54:11.635Z,6.90
2024-04-16T03:57:37.636Z,7.00
2024-04-16T04:01:04.053Z,7.00
2024-04-16T04:04:28.582Z,7.00
2024-04-16T04:07:52.622Z,7.00
2024-04-16T04:11:16.250Z,7.10
2024-04-16T04:14:43.841Z,7.10
2024-04-16T04:18:08.451Z,7.10
2024-04-16T04:21:29.492Z,7.10
2024-04-16T04:24:53.592Z,7.20
2024-04-16T04:28:17.128Z,7.20
2024-04-16T04:31:42.129Z,7.20
2024-04-16T04:35:08.229Z,7.20
2024-04-16T04:38:31.883Z,7.20
2024-04-16T04:41:52.633Z,7.30
2024-04-16T04:45:16.771Z,7.30
2024-04-16T04:48:43.393Z,7.30
2024-04-16T04:52:07.542Z,7.30
2024-04-16T04:55:31.570Z,7.30
2024-04-16T04:58:55.363Z,7.40
2024-04-16T05:02:16.358Z,7.40
2024-04-16T05:05:43.959Z,7.50
2024-04-16T05:09:07.853Z,7.50
2024-04-16T05:12:29.714Z,7.50
2024-04-16T05:15:54.483Z,7.50
2024-04-16T05:19:18.363Z,7.60
2024-04-16T05:22:44.565Z,7.60
2024-04-16T05:26:08.803Z,7.60
2024-04-16T05:29:32.561Z,7.60
2024-04-16T05:32:56.589Z,7.60
2024-04-16T05:36:18.273Z,7.70
2024-04-16T05:39:44.502Z,7.80
2024-04-16T05:43:08.171Z,7.80
2024-04-16T05:46:29.102Z,7.80
2024-04-16T05:49:53.077Z,7.90
2024-04-16T05:53:17.128Z,7.90
2024-04-16T05:56:43.218Z,7.90
2024-04-16T06:00:08.927Z,8.00
2024-04-16T06:03:29.927Z,8.00
2024-04-16T06:06:54.082Z,8.10
2024-04-16T06:10:16.047Z,8.20
2024-04-16T06:13:44.702Z,8.30
2024-04-16T06:17:07.305Z,8.40
2024-04-16T06:20:31.942Z,8.40
2024-04-16T06:23:55.925Z,8.40
2024-04-16T06:27:16.925Z,8.40
2024-04-16T06:30:43.041Z,8.30
2024-04-16T06:34:07.231Z,8.30
2024-04-16T06:37:30.869Z,8.00
2024-04-16T06:40:52.085Z,8.00
2024-04-16T06:44:15.461Z,8.10
2024-04-16T06:47:39.461Z,8.30
2024-04-16T06:51:03.472Z,8.40
2024-04-16T06:54:24.975Z,8.50
2024-04-16T06:57:50.561Z,8.60
2024-04-16T07:01:16.482Z,8.60
2024-04-16T07:04:40.363Z,8.70
2024-04-16T07:08:04.420Z,8.70
2024-04-16T07:11:25.867Z,8.90
2024-04-16T07:14:49.842Z,9.10
2024-04-16T07:18:13.853Z,9.20
2024-04-16T07:21:37.836Z,9.40
2024-04-16T07:25:01.997Z,9.60
2024-04-16T07:28:23.445Z,9.60
2024-04-16T07:31:50.047Z,9.60
2024-04-16T07:35:14.778Z,9.60
2024-04-16T07:38:38.925Z,9.50
2024-04-16T07:42:02.997Z,9.50
2024-04-16T07:45:26.678Z,9.40
2024-04-16T07:48:50.211Z,9.40
2024-04-16T07:52:12.590Z,9.30
2024-04-16T07:55:39.110Z,9.30
2024-04-16T07:59:00.500Z,9.20
2024-04-16T08:02:26.575Z,9.30
2024-04-16T08:05:51.407Z,9.30
2024-04-16T08:09:12.760Z,9.40
2024-04-16T08:12:38.787Z,9.70
2024-04-16T08:16:00.178Z,9.70
2024-04-16T08:19:24.149Z,9.70
2024-04-16T08:22:45.677Z,9.80
2024-04-16T08:26:12.694Z,10.00
2024-04-16T08:29:39.655Z,10.30
2024-04-16T08:33:03.452Z,10.50
2024-04-16T08:36:27.373Z,10.80
2024-04-16T08:39:48.767Z,10.80
2024-04-16T08:43:13.461Z,10.80
2024-04-16T08:46:39.359Z,10.80
2024-04-16T08:50:03.448Z,10.70
2024-04-16T08:53:25.742Z,10.80
2024-04-16T08:56:50.948Z,10.80
2024-04-16T09:00:15.518Z,10.90
2024-04-16T09:03:42.814Z,11.00
2024-04-16T09:07:06.286Z,11.00
2024-04-16T09:10:30.293Z,11.00
2024-04-16T09:13:51.600Z,11.10
2024-04-16T09:17:17.888Z,11.00
2024-04-16T09:20:44.320Z,11.00
2024-04-16T09:24:06.668Z,11.00
2024-04-16T09:27:30.591Z,11.00
2024-04-16T09:30:56.171Z,11.10
2024-04-16T09:34:20.331Z,11.50
2024-04-16T09:37:49.220Z,11.80
2024-04-16T09:41:12.046Z,12.30
2024-04-16T09:44:37.540Z,12.60
2024-04-16T09:48:02.614Z,12.80
2024-04-16T09:51:26.195Z,12.70
2024-04-16T09:54:53.597Z,12.40
2024-04-16T09:58:19.719Z,12.10
2024-04-16T10:01:45.343Z,11.90
2024-04-16T10:05:10.308Z,11.90
2024-04-16T10:08:34.682Z,11.90
2024-04-16T10:12:01.480Z,11.90
2024-04-16T10:15:25.571Z,12.00
2024-04-16T10:18:57.959Z,12.20
2024-04-16T10:22:21.819Z,12.60
2024-04-16T10:25:50.368Z,12.80
2024-04-16T10:29:20.978Z,12.90
2024-04-16T10:32:48.373Z,12.90
2024-04-16T10:36:13.184Z,12.90
2024-04-16T10:39:34.327Z,13.10
2024-04-16T10:42:58.461Z,13.20
2024-04-16T10:46:26.351Z,13.40
2024-04-16T10:49:50.203Z,13.40
2024-04-16T10:53:14.971Z,13.50
2024-04-16T10:56:40.342Z,13.60
2024-04-16T11:00:09.213Z,13.70
2024-04-16T11:03:39.871Z,13.90
2024-04-16T11:07:01.134Z,14.10
2024-04-16T11:10:25.104Z,14.30
2024-04-16T11:13:49.223Z,14.20
2024-04-16T11:17:10.232Z,14.20
2024-04-16T11:20:37.518Z,14.40
2024-04-16T11:24:01.807Z,14.30
2024-04-16T11:27:26.565Z,14.10
2024-04-16T11:30:55.283Z,14.30
2024-04-16T11:34:21.949Z,14.20
2024-04-16T11:37:47.852Z,14.30
2024-04-16T11:41:13.865Z,14.20
2024-04-16T11:44:38.062Z,13.70
2024-04-16T11:47:59.092Z,13.50
2024-04-16T11:51:23.020Z,13.30
2024-04-16T11:54:49.688Z,13.10
2024-04-16T11:58:13.760Z,12.70
2024-04-16T12:01:37.930Z,12.70
2024-04-16T12:04:59.248Z,12.60
2024-04-16T12:08:23.123Z,12.70
2024-04-16T12:11:50.130Z,13.00
2024-04-16T12:15:11.512Z,13.50
2024-04-16T12:18:35.002Z,13.90
2024-04-16T12:21:58.865Z,14.20
2024-04-16T12:25:20.006Z,14.20
2024-04-16T12:28:46.931Z,13.50
2024-04-16T12:32:10.955Z,12.80
2024-04-16T12:35:34.754Z,12.40
2024-04-16T12:38:58.204Z,11.90
2024-04-16T12:42:19.480Z,11.60
2024-04-16T12:45:45.912Z,11.60
2024-04-16T12:49:07.304Z,11.50
2024-04-16T12:52:31.189Z,11.20
2024-04-16T12:55:55.379Z,11.00
2024-04-16T12:59:18.147Z,10.90
2024-04-16T13:02:45.520Z,11.20
2024-04-16T13:06:06.930Z,11.20
2024-04-16T13:09:31.651Z,11.10
2024-04-16T13:12:55.394Z,10.70
2024-04-16T13:16:18.962Z,10.50
2024-04-16T13:19:53.339Z,10.20
2024-04-16T13:23:15.361Z,10.00
2024-04-16T13:26:39.340Z,9.90
2024-04-16T13:30:00.757Z,10.00
2024-04-16T13:33:24.678Z,10.20
2024-04-16T13:36:48.479Z,10.30
2024-04-16T13:40:12.729Z,10.30
2024-04-16T13:43:36.791Z,10.50
2024-04-16T13:47:00.994Z,10.90
2024-04-16T13:50:22.403Z,10.90
2024-04-16T13:53:48.711Z,10.90
2024-04-16T13:57:15.299Z,10.90
2024-04-16T14:00:37.725Z,10.80
2024-04-16T14:04:01.699Z,10.80
2024-04-16T14:07:26.213Z,10.70
2024-04-16T14:10:52.915Z,10.70
2024-04-16T14:14:14.143Z,10.90
2024-04-16T14:17:37.669Z,11.00
2024-04-16T14:21:01.365Z,11.00
2024-04-16T14:24:26.493Z,11.10
2024-04-16T14:27:50.349Z,11.20
2024-04-16T14:31:15.782Z,11.30
2024-04-16T14:34:40.143Z,11.20
2024-04-16T14:38:06.182Z,11.20
2024-04-16T14:41:30.907Z,11.30
2024-04-16T14:44:55.197Z,11.50
2024-04-16T14:48:19.158Z,11.60
2024-04-16T14:51:43.532Z,11.90
2024-04-16T14:55:07.760Z,12.00
2024-04-16T14:58:28.626Z,11.90
2024-04-16T15:01:54.967Z,12.00
2024-04-16T15:05:18.983Z,11.90
2024-04-16T15:08:43.375Z,11.80
2024-04-16T15:12:08.133Z,11.80
2024-04-16T15:15:33.022Z,11.70
2024-04-16T15:18:59.305Z,11.70
2024-04-16T15:22:22.683Z,11.70
2024-04-16T15:25:47.206Z,11.50
2024-04-16T15:29:11.451Z,11.30
2024-04-16T15:32:35.306Z,11.10
2024-04-16T15:35:59.060Z,11.00
2024-04-16T15:39:22.532Z,11.00
2024-04-16T15:42:44.026Z,11.00
2024-04-16T15:46:07.985Z,11.00
2024-04-16T15:49:31.458Z,11.10
2024-04-16T15:52:57.975Z,11.40
2024-04-16T15:56:18.823Z,11.30
2024-04-16T15:59:43.559Z,11.20
2024-04-16T16:03:07.954Z,11.30
2024-04-16T16:06:33.596Z,11.30
2024-04-16T16:09:57.762Z,11.10
2024-04-16T16:13:21.400Z,11.00
2024-04-16T16:16:45.469Z,10.90
2024-04-16T16:20:08.581Z,10.90
2024-04-16T16:23:32.434Z,10.60
2024-04-16T16:26:59.062Z,10.60
2024-04-16T16:30:23.232Z,10.70
2024-04-16T16:33:47.111Z,10.60
2024-04-16T16:37:11.278Z,10.60
2024-04-16T16:40:32.479Z,10.50
2024-04-16T16:43:59.216Z,10.70
2024-04-16T16:47:20.276Z,10.60
2024-04-16T16:50:45.232Z,10.60
2024-04-16T16:54:06.914Z,10.60
2024-04-16T16:57:31.036Z,10.60
2024-04-16T17:00:57.394Z,10.50
2024-04-16T17:04:18.983Z,10.40
2024-04-16T17:07:42.859Z,10.40
2024-04-16T17:11:04.690Z,10.50
2024-04-16T17:14:28.604Z,10.50
2024-04-16T17:17:52.135Z,10.60
2024-04-16T17:21:16.010Z,10.60
2024-04-16T17:24:41.033Z,10.60
2024-04-16T17:28:06.255Z,10.50
2024-04-16T17:31:27.523Z,10.40
2024-04-16T17:34:53.997Z,10.30
2024-04-16T17:38:15.220Z,10.30
2024-04-16T17:41:39.070Z,10.20
2024-04-16T17:45:00.284Z,10.20
2024-04-16T17:48:26.797Z,10.10
2024-04-16T17:51:55.850Z,10.00
2024-04-16T17:55:16.823Z,10.00
2024-04-16T17:58:40.815Z,10.00
2024-04-16T18:02:04.665Z,10.00
2024-04-16T18:05:28.856Z,10.10
2024-04-16T18:08:55.559Z,10.10
2024-04-16T18:12:19.671Z,10.10
2024-04-16T18:15:40.540Z,10.10
2024-04-16T18:19:04.492Z,10.20
2024-04-16T18:22:28.706Z,10.20
2024-04-16T18:25:52.149Z,10.10
2024-04-16T18:29:16.243Z,10.30
2024-04-16T18:32:37.301Z,10.30
2024-04-16T18:36:01.733Z,10.40
2024-04-16T18:39:23.199Z,10.40
2024-04-16T18:42:49.214Z,10.40
2024-04-16T18:46:13.354Z,10.30
2024-04-16T18:49:36.909Z,10.20
2024-04-16T18:52:58.296Z,10.10
2024-04-16T18:56:23.930Z,10.00
2024-04-16T18:59:48.196Z,10.00
2024-04-16T19:03:11.769Z,9.90
2024-04-16T19:06:36.319Z,9.90
2024-04-16T19:09:57.521Z,9.90
2024-04-16T19:13:21.613Z,9.80
2024-04-16T19:16:46.506Z,9.90
2024-04-16T19:20:10.689Z,9.90
2024-04-16T19:23:31.656Z,9.90
2024-04-16T19:26:55.626Z,9.90
2024-04-16T19:30:19.257Z,9.80
2024-04-16T19:33:48.577Z,9.80
2024-04-16T19:37:09.585Z,9.80
2024-04-16T19:40:33.532Z,9.80
2024-04-16T19:43:56.100Z,9.70
2024-04-16T19:47:19.824Z,9.60
2024-04-16T19:50:47.046Z,9.70
2024-04-16T19:54:10.686Z,9.60
2024-04-16T19:57:31.983Z,9.60
2024-04-16T20:00:56.048Z,9.60
2024-04-16T20:04:20.257Z,9.50
2024-04-16T20:07:46.777Z,9.50
2024-04-16T20:11:08.334Z,9.50
2024-04-16T20:14:33.091Z,9.30
2024-04-16T20:17:56.841Z,9.30
2024-04-16T20:21:21.786Z,9.30
2024-04-16T20:24:50.398Z,9.10
2024-04-16T20:28:14.187Z,9.00
2024-04-16T20:31:34.975Z,9.00
2024-04-16T20:34:59.769Z,9.00
2024-04-16T20:38:26.022Z,9.10
2024-04-16T20:41:52.649Z,9.00
2024-04-16T20:45:13.703Z,8.90
2024-04-16T20:48:37.334Z,8.90
2024-04-16T20:52:01.331Z,8.90
2024-04-16T20:55:22.574Z,8.80
2024-04-16T20:58:50.089Z,8.70
2024-04-16T21:02:11.504Z,8.70
2024-04-16T21:05:35.525Z,8.60
2024-04-16T21:09:00.311Z,8.50
2024-04-16T21:12:21.260Z,8.50
2024-04-16T21:15:55.952Z,8.30
2024-04-16T21:19:19.481Z,8.30
2024-04-16T21:22:41.035Z,8.30
2024-04-16T21:26:04.939Z,8.30
2024-04-16T21:29:28.320Z,8.20
2024-04-16T21:32:54.507Z,8.20
2024-04-16T21:36:15.757Z,8.10
2024-04-16T21:39:39.317Z,7.90
2024-04-16T21:43:00.570Z,7.90
2024-04-16T21:46:24.873Z,7.80
2024-04-16T21:49:51.393Z,7.80
2024-04-16T21:53:15.190Z,7.90
2024-04-16T21:56:39.814Z,7.90
2024-04-16T22:00:00.920Z,7.90
2024-04-16T22:03:25.454Z,7.90
2024-04-16T22:06:52.123Z,7.90
2024-04-16T22:10:13.371Z,8.00
2024-04-16T22:13:38.047Z,8.00
2024-04-16T22:16:59.274Z,8.00
2024-04-16T22:20:23.703Z,8.10
2024-04-16T22:23:50.035Z,7.90
2024-04-16T22:27:13.816Z,7.90
2024-04-16T22:30:35.208Z,8.00
2024-04-16T22:33:58.771Z,8.10
2024-04-16T22:37:19.673Z,8.00
2024-04-16T22:40:46.613Z,8.10
2024-04-16T22:44:10.049Z,8.20
2024-04-16T22:47:31.373Z,8.10
2024-04-16T22:50:57.233Z,8.10
2024-04-16T22:54:20.998Z,8.20
2024-04-16T22:57:44.504Z,8.10
2024-04-16T23:01:08.269Z,8.10
2024-04-16T23:04:32.211Z,8.00
2024-04-16T23:07:53.774Z,8.10
2024-04-16T23:11:18.396Z,8.00
2024-04-16T23:14:44.564Z,8.10
2024-04-16T23:18:06.906Z,8.10
2024-04-16T23:21:30.460Z,8.20
2024-04-16T23:24:51.384Z,8.10
2024-04-16T23:28:14.868Z,8.10
2024-04-16T23:31:38.441Z,8.20
2024-04-16T23:35:02.451Z,8.20
2024-04-16T23:38:25.887Z,8.20
2024-04-16T23:41:49.801Z,8.10
2024-04-16T23:45:13.646Z,8.00
2024-04-16T23:48:39.789Z,8.00
2024-04-16T23:52:03.788Z,8.10
2024-04-16T23:55:27.069Z,8.00
2024-04-16T23:58:50.941Z,8.00
